Navarino, Wisconsin
Current Conditions -  °F | °C
As of 12:35 AM on Sunday 26 Oct 2014 (Local Time) from KEZS Reporting Station
Clear Clear  
Wind Chill: 45°   Ceiling: Unl
Heat Index: 47°   Visibility: 10mi
Dew Point: 25°   Wind: 6mph
Humidity: 42%   Direction: 270°W
Pressure: 29.94"   Gusts: NA
Location:  44.7353°N, 88.4379°W
Report Text: KEZS 260535Z AUTO 27005KT 10SM CLR 09/M04 A2994 RMK AO2 T00851037
Loading
Personal Weather Stations






























Interactive Weather Map
Tropical Storm Tracking
New forecast layout! Learn more

10-Day Weather Forecast

Advertisements
Track Severe Weather on mobile